createdAt,value
2022-10-31T00:02:27.627Z,100409.53
2022-10-31T00:05:13.377Z,100419.09
2022-10-31T00:07:58.855Z,100425.16
2022-10-31T00:10:45.489Z,100419.97
2022-10-31T00:13:30.691Z,100419.94
2022-10-31T00:16:19.807Z,100414.69
2022-10-31T00:19:07.914Z,100418.13
2022-10-31T00:21:53.509Z,100430.28
2022-10-31T00:24:39.121Z,100432.94
2022-10-31T00:27:24.336Z,100423.38
2022-10-31T00:30:10.214Z,100412.09
2022-10-31T00:32:55.901Z,100412.09
2022-10-31T00:35:41.554Z,100417.31
2022-10-31T00:38:27.076Z,100410.38
2022-10-31T00:41:13.743Z,100411.25
2022-10-31T00:44:00.103Z,100406.91
2022-10-31T00:46:45.522Z,100404.31
2022-10-31T00:49:30.826Z,100409.53
2022-10-31T00:52:16.338Z,100398.25
2022-10-31T00:55:01.951Z,100400.81
2022-10-31T00:57:48.741Z,100395.59
2022-10-31T01:00:34.964Z,100399.94
2022-10-31T01:03:20.500Z,100399.91
2022-10-31T01:06:09.022Z,100397.25
2022-10-31T01:08:54.436Z,100385.97
2022-10-31T01:11:39.669Z,100391.19
2022-10-31T01:14:27.537Z,100387.75
2022-10-31T01:17:15.935Z,100382.50
2022-10-31T01:20:01.312Z,100390.31
2022-10-31T01:22:46.998Z,100390.38
2022-10-31T01:25:32.415Z,100386.00
2022-10-31T01:28:17.759Z,100396.44
2022-10-31T01:31:08.944Z,100386.88
2022-10-31T01:33:55.760Z,100384.28
2022-10-31T01:36:42.058Z,100385.09
2022-10-31T01:39:28.575Z,100384.22
2022-10-31T01:42:20.505Z,100392.94
2022-10-31T01:45:07.198Z,100394.69
2022-10-31T01:47:53.018Z,100386.81
2022-10-31T01:50:40.856Z,100387.72
2022-10-31T01:53:27.079Z,100372.06
2022-10-31T01:56:14.180Z,100378.19
2022-10-31T01:59:02.308Z,100381.66
2022-10-31T02:01:51.527Z,100379.03
2022-10-31T02:04:39.503Z,100373.75
2022-10-31T02:07:31.507Z,100360.59
2022-10-31T02:10:20.030Z,100360.56
2022-10-31T02:13:08.503Z,100365.84
2022-10-31T02:16:01.691Z,100371.13
2022-10-31T02:18:47.514Z,100360.75
2022-10-31T02:22:08.221Z,100359.84
2022-10-31T02:25:00.460Z,100359.81
2022-10-31T02:27:57.650Z,100358.91
2022-10-31T02:31:26.696Z,100357.88
2022-10-31T02:34:23.215Z,100353.41
2022-10-31T02:37:14.757Z,100339.47
2022-10-31T02:40:11.738Z,100335.97
2022-10-31T02:43:28.461Z,100332.41
2022-10-31T02:46:48.051Z,100333.31
2022-10-31T02:49:46.700Z,100316.69
2022-10-31T02:52:34.159Z,100313.16
2022-10-31T02:55:27.753Z,100323.53
2022-10-31T02:58:22.155Z,100308.72
2022-10-31T03:01:20.093Z,100303.47
2022-10-31T03:04:09.842Z,100301.69
2022-10-31T03:07:16.322Z,100292.22
2022-10-31T03:10:20.990Z,100282.75
2022-10-31T03:13:16.342Z,100279.34
2022-10-31T03:16:17.108Z,100284.50
2022-10-31T03:19:09.768Z,100293.09
2022-10-31T03:22:03.389Z,100290.47
2022-10-31T03:24:52.594Z,100282.63
2022-10-31T03:27:41.083Z,100283.41
2022-10-31T03:30:26.728Z,100268.41
2022-10-31T03:33:20.537Z,100264.06
2022-10-31T03:36:09.661Z,100260.63
2022-10-31T03:38:58.092Z,100264.22
2022-10-31T03:41:50.010Z,100270.38
2022-10-31T03:44:37.348Z,100270.31
2022-10-31T03:47:23.363Z,100264.22
2022-10-31T03:50:11.718Z,100261.50
2022-10-31T03:53:07.448Z,100259.72
2022-10-31T03:56:03.814Z,100249.31
2022-10-31T03:59:10.585Z,100252.88
2022-10-31T04:02:01.357Z,100257.28
2022-10-31T04:04:49.794Z,100264.28
2022-10-31T04:07:40.949Z,100267.81
2022-10-31T04:10:32.855Z,100266.91
2022-10-31T04:13:25.705Z,100262.56
2022-10-31T04:16:19.726Z,100251.19
2022-10-31T04:19:05.856Z,100250.47
2022-10-31T04:21:51.498Z,100254.81
2022-10-31T04:24:39.931Z,100253.94
2022-10-31T04:27:25.928Z,100261.72
2022-10-31T04:30:11.447Z,100256.53
2022-10-31T04:32:59.458Z,100260.00
2022-10-31T04:35:45.911Z,100247.84
2022-10-31T04:38:31.580Z,100249.56
2022-10-31T04:41:17.679Z,100254.78
2022-10-31T04:44:17.516Z,100252.25
2022-10-31T04:47:06.536Z,100244.41
2022-10-31T04:49:52.262Z,100239.13
2022-10-31T04:52:45.626Z,100238.94
2022-10-31T04:55:34.212Z,100250.09
2022-10-31T04:58:38.820Z,100239.69
2022-10-31T05:01:27.700Z,100232.63
2022-10-31T05:04:14.503Z,100226.47
2022-10-31T05:07:00.746Z,100216.03
2022-10-31T05:09:46.165Z,100214.41
2022-10-31T05:12:32.960Z,100210.06
2022-10-31T05:15:23.607Z,100206.59
2022-10-31T05:18:27.563Z,100211.75
2022-10-31T05:21:31.737Z,100206.50
2022-10-31T05:24:22.850Z,100202.94
2022-10-31T05:27:08.509Z,100201.13
2022-10-31T05:29:54.143Z,100197.47
2022-10-31T05:32:41.311Z,100187.78
2022-10-31T05:35:58.912Z,100185.94
2022-10-31T05:38:52.498Z,100177.16
2022-10-31T05:41:47.104Z,100166.56
2022-10-31T05:44:38.140Z,100163.94
2022-10-31T05:47:33.730Z,100158.69
2022-10-31T05:50:54.694Z,100162.88
2022-10-31T05:53:40.968Z,100174.13
2022-10-31T05:56:26.420Z,100173.28
2022-10-31T05:59:11.982Z,100171.56
2022-10-31T06:01:58.423Z,100172.38
2022-10-31T06:05:04.908Z,100159.25
2022-10-31T06:07:51.652Z,100156.53
2022-10-31T06:10:37.050Z,100146.03
2022-10-31T06:13:23.064Z,100144.25
2022-10-31T06:16:15.559Z,100151.97
2022-10-31T06:19:03.197Z,100135.28
2022-10-31T06:21:49.942Z,100131.78
2022-10-31T06:24:35.725Z,100144.84
2022-10-31T06:27:41.504Z,100135.19
2022-10-31T06:30:32.514Z,100136.03
2022-10-31T06:33:17.910Z,100133.44
2022-10-31T06:36:14.072Z,100141.31
2022-10-31T06:38:59.573Z,100138.66
2022-10-31T06:41:48.380Z,100136.03
2022-10-31T06:44:34.772Z,100145.47
2022-10-31T06:47:56.829Z,100148.91
2022-10-31T06:50:47.090Z,100157.53
2022-10-31T06:53:33.429Z,100142.56
2022-10-31T06:56:19.931Z,100141.63
2022-10-31T06:59:12.121Z,100141.63
2022-10-31T07:02:17.875Z,100135.59
2022-10-31T07:05:03.437Z,100148.72
2022-10-31T07:07:52.717Z,100155.69
2022-10-31T07:10:41.080Z,100160.00
2022-10-31T07:13:27.565Z,100166.03
2022-10-31T07:16:21.613Z,100177.25
2022-10-31T07:19:08.037Z,100176.25
2022-10-31T07:21:53.716Z,100180.59
2022-10-31T07:24:39.147Z,100186.63
2022-10-31T07:27:44.287Z,100186.66
2022-10-31T07:30:31.581Z,100184.06
2022-10-31T07:33:17.710Z,100186.69
2022-10-31T07:36:32.115Z,100180.63
2022-10-31T07:39:21.909Z,100197.28
2022-10-31T07:42:07.503Z,100192.88
2022-10-31T07:44:56.826Z,100196.44
2022-10-31T07:48:03.645Z,100199.94
2022-10-31T07:51:18.507Z,100208.59
2022-10-31T07:54:24.513Z,100201.47
2022-10-31T07:57:09.925Z,100200.44
2022-10-31T07:59:56.783Z,100196.91
2022-10-31T08:02:42.388Z,100194.34
2022-10-31T08:05:48.461Z,100194.38
2022-10-31T08:09:03.387Z,100194.44
2022-10-31T08:11:50.671Z,100187.41
2022-10-31T08:14:36.084Z,100193.44
2022-10-31T08:17:21.891Z,100186.34
2022-10-31T08:20:13.865Z,100183.66
2022-10-31T08:23:06.329Z,100183.63
2022-10-31T08:25:53.699Z,100177.41
2022-10-31T08:28:39.399Z,100184.31
2022-10-31T08:31:32.901Z,100183.34
2022-10-31T08:34:37.973Z,100171.84
2022-10-31T08:37:59.792Z,100178.69
2022-10-31T08:40:50.401Z,100172.44
2022-10-31T08:43:35.941Z,100187.19
2022-10-31T08:46:21.616Z,100160.13
2022-10-31T08:49:07.160Z,100169.75
2022-10-31T08:51:53.129Z,100167.09
2022-10-31T08:54:39.793Z,100160.00
2022-10-31T08:57:48.358Z,100156.34
2022-10-31T09:00:35.471Z,100149.22
2022-10-31T09:03:34.019Z,100162.16
2022-10-31T09:06:19.790Z,100158.50
2022-10-31T09:09:07.279Z,100153.09
2022-10-31T09:11:52.944Z,100165.25
2022-10-31T09:14:59.054Z,100169.59
2022-10-31T09:17:50.541Z,100178.31
2022-10-31T09:21:00.288Z,100176.66
2022-10-31T09:23:48.588Z,100175.72
2022-10-31T09:26:35.253Z,100180.91
2022-10-31T09:29:30.999Z,100181.78
2022-10-31T09:32:19.156Z,100180.09
2022-10-31T09:35:05.881Z,100184.53
2022-10-31T09:37:56.581Z,100173.22
2022-10-31T09:41:07.668Z,100174.13
2022-10-31T09:44:34.796Z,100174.16
2022-10-31T09:47:33.520Z,100178.41
2022-10-31T09:50:45.266Z,100175.78
2022-10-31T09:53:55.110Z,100173.06
2022-10-31T09:56:42.482Z,100167.69
2022-10-31T09:59:35.084Z,100152.69
2022-10-31T10:02:28.252Z,100148.22
2022-10-31T10:05:21.950Z,100155.06
2022-10-31T10:08:20.884Z,100164.50
2022-10-31T10:11:47.527Z,100151.09
2022-10-31T10:14:41.284Z,100143.03
2022-10-31T10:17:50.080Z,100152.44
2022-10-31T10:20:50.034Z,100148.75
2022-10-31T10:24:00.660Z,100155.50
2022-10-31T10:26:55.197Z,100162.25
2022-10-31T10:29:43.506Z,100153.31
2022-10-31T10:32:33.589Z,100159.22
2022-10-31T10:35:28.691Z,100156.50
2022-10-31T10:38:39.197Z,100145.84
2022-10-31T10:41:34.001Z,100146.47
2022-10-31T10:44:20.779Z,100149.59
2022-10-31T10:47:25.735Z,100143.13
2022-10-31T10:50:26.609Z,100138.31
2022-10-31T10:54:07.970Z,100142.22
2022-10-31T10:57:19.152Z,100133.94
2022-10-31T11:00:36.572Z,100135.25
2022-10-31T11:03:22.477Z,100137.63
2022-10-31T11:06:26.407Z,100141.78
2022-10-31T11:09:12.096Z,100133.59
2022-10-31T11:11:59.254Z,100135.13
2022-10-31T11:15:00.468Z,100128.03
2022-10-31T11:17:50.451Z,100124.69
2022-10-31T11:20:37.745Z,100122.22
2022-10-31T11:23:25.384Z,100137.00
2022-10-31T11:26:20.970Z,100120.56
2022-10-31T11:29:13.627Z,100130.22
2022-10-31T11:32:01.805Z,100132.81
2022-10-31T11:34:52.200Z,100136.34
2022-10-31T11:37:43.972Z,100125.34
2022-10-31T11:40:29.327Z,100127.63
2022-10-31T11:43:18.524Z,100126.69
2022-10-31T11:46:22.064Z,100121.25
2022-10-31T11:49:18.187Z,100119.56
2022-10-31T11:52:09.792Z,100122.19
2022-10-31T11:54:58.470Z,100135.34
2022-10-31T11:57:49.027Z,100126.47
2022-10-31T12:00:39.080Z,100124.06
2022-10-31T12:03:24.255Z,100123.91
2022-10-31T12:06:24.697Z,100119.06
2022-10-31T12:09:25.280Z,100109.00
2022-10-31T12:12:32.215Z,100116.13
2022-10-31T12:15:17.764Z,100101.13
2022-10-31T12:18:06.112Z,100091.22
2022-10-31T12:21:03.488Z,100093.53
2022-10-31T12:24:09.882Z,100083.47
2022-10-31T12:26:58.310Z,100064.81
2022-10-31T12:30:15.149Z,100053.13
2022-10-31T12:33:26.487Z,100065.75
2022-10-31T12:36:42.198Z,100059.44
2022-10-31T12:40:16.820Z,100075.03
2022-10-31T12:43:24.635Z,100074.38
2022-10-31T12:46:23.411Z,100063.13
2022-10-31T12:49:29.016Z,100053.97
2022-10-31T12:52:28.957Z,100053.38
2022-10-31T12:55:36.266Z,100056.19
2022-10-31T12:58:30.419Z,100053.56
2022-10-31T13:01:28.604Z,100044.09
2022-10-31T13:04:22.593Z,100038.16
2022-10-31T13:07:16.579Z,100044.59
2022-10-31T13:10:35.192Z,100045.78
2022-10-31T13:13:38.999Z,100043.50
2022-10-31T13:16:29.604Z,100049.84
2022-10-31T13:19:30.517Z,100047.38
2022-10-31T13:22:25.792Z,100053.81
2022-10-31T13:25:43.518Z,100052.44
2022-10-31T13:28:40.802Z,100054.53
2022-10-31T13:31:26.656Z,100065.41
2022-10-31T13:34:23.325Z,100057.06
2022-10-31T13:37:28.787Z,100059.88
2022-10-31T13:40:35.919Z,100062.78
2022-10-31T13:43:30.468Z,100059.50
2022-10-31T13:46:35.111Z,100059.66
2022-10-31T13:49:30.680Z,100053.69
2022-10-31T13:52:25.450Z,100042.41
2022-10-31T13:55:44.087Z,100043.31
2022-10-31T13:58:32.226Z,100037.22
2022-10-31T14:01:21.863Z,100020.66
2022-10-31T14:04:25.697Z,100018.97
2022-10-31T14:07:22.514Z,100039.94
2022-10-31T14:10:29.097Z,100030.13
2022-10-31T14:13:47.966Z,100023.78
2022-10-31T14:16:33.655Z,100013.13
2022-10-31T14:19:22.019Z,100022.63
2022-10-31T14:22:22.546Z,100011.25
2022-10-31T14:25:31.812Z,100016.50
2022-10-31T14:28:23.677Z,100019.16
2022-10-31T14:31:38.331Z,100012.19
2022-10-31T14:34:35.719Z,100005.25
2022-10-31T14:37:39.484Z,100007.78
2022-10-31T14:40:43.482Z,99993.88
2022-10-31T14:43:50.775Z,100003.47
2022-10-31T14:47:08.966Z,100000.84
2022-10-31T14:50:09.448Z,100001.66
2022-10-31T14:53:01.976Z,99986.91
2022-10-31T14:55:54.688Z,99988.72
2022-10-31T14:58:44.271Z,99987.06
2022-10-31T15:01:33.746Z,99988.91
2022-10-31T15:04:26.000Z,99995.44
2022-10-31T15:07:14.916Z,100010.72
2022-10-31T15:10:20.578Z,100027.88
2022-10-31T15:13:20.665Z,100026.22
2022-10-31T15:16:14.714Z,100009.19
2022-10-31T15:19:09.278Z,100002.56
2022-10-31T15:21:57.539Z,100002.94
2022-10-31T15:24:44.271Z,100014.63
2022-10-31T15:27:31.181Z,100018.34
2022-10-31T15:30:24.055Z,100016.75
2022-10-31T15:33:22.114Z,100015.09
2022-10-31T15:36:07.750Z,100018.66
2022-10-31T15:38:56.164Z,100019.56
2022-10-31T15:41:54.744Z,100019.56
2022-10-31T15:44:43.471Z,100018.72
2022-10-31T15:47:31.906Z,100004.72
2022-10-31T15:50:25.926Z,99997.78
2022-10-31T15:53:26.397Z,100006.50
2022-10-31T15:56:20.019Z,99998.72
2022-10-31T15:59:05.719Z,99993.56
2022-10-31T16:02:03.011Z,99986.66
2022-10-31T16:05:19.332Z,99984.16
2022-10-31T16:08:04.991Z,99969.44
2022-10-31T16:10:50.440Z,99972.09
2022-10-31T16:13:38.479Z,99978.25
2022-10-31T16:16:39.944Z,99978.38
2022-10-31T16:19:27.833Z,99989.72
2022-10-31T16:22:19.900Z,99983.66
2022-10-31T16:25:15.901Z,99975.03
2022-10-31T16:28:06.892Z,99966.34
2022-10-31T16:30:54.872Z,99959.44
2022-10-31T16:33:41.589Z,99969.03
2022-10-31T16:36:39.471Z,99964.75
2022-10-31T16:39:24.830Z,99952.53
2022-10-31T16:42:11.404Z,99962.13
2022-10-31T16:44:56.685Z,99943.00
2022-10-31T16:47:42.575Z,99936.03
2022-10-31T16:50:28.411Z,99909.06
2022-10-31T16:53:16.723Z,99908.25
2022-10-31T16:56:04.385Z,99937.00
2022-10-31T16:58:49.874Z,99929.22
2022-10-31T17:01:36.352Z,99929.22
2022-10-31T17:04:22.782Z,99928.38
2022-10-31T17:07:08.398Z,99917.06
2022-10-31T17:09:53.893Z,99907.47
2022-10-31T17:12:41.771Z,99912.75
2022-10-31T17:15:29.072Z,99907.56
2022-10-31T17:18:16.605Z,99905.94
2022-10-31T17:21:06.115Z,99901.63
2022-10-31T17:23:51.559Z,99902.50
2022-10-31T17:26:37.067Z,99898.25
2022-10-31T17:29:22.601Z,99893.03
2022-10-31T17:32:08.039Z,99889.56
2022-10-31T17:34:53.350Z,99881.72
2022-10-31T17:37:39.756Z,99874.81
2022-10-31T17:40:25.269Z,99872.22
2022-10-31T17:43:12.263Z,99877.41
2022-10-31T17:46:01.243Z,99869.50
2022-10-31T17:48:46.521Z,99877.28
2022-10-31T17:51:32.112Z,99872.06
2022-10-31T17:54:18.962Z,99866.78
2022-10-31T17:57:04.388Z,99856.31
2022-10-31T17:59:50.218Z,99862.34
2022-10-31T18:02:36.558Z,99857.13
2022-10-31T18:05:22.204Z,99842.38
2022-10-31T18:08:07.795Z,99840.63
2022-10-31T18:10:53.678Z,99833.81
2022-10-31T18:13:39.295Z,99830.34
2022-10-31T18:16:26.354Z,99825.97
2022-10-31T18:19:14.294Z,99821.63
2022-10-31T18:21:59.592Z,99825.97
2022-10-31T18:24:44.923Z,99809.44
2022-10-31T18:27:30.510Z,99805.97
2022-10-31T18:30:16.137Z,99793.78
2022-10-31T18:33:02.216Z,99792.97
2022-10-31T18:35:47.835Z,99794.75
2022-10-31T18:38:37.235Z,99799.94
2022-10-31T18:41:23.083Z,99797.25
2022-10-31T18:44:09.382Z,99792.06
2022-10-31T18:46:55.211Z,99796.41
2022-10-31T18:49:40.582Z,99792.09
2022-10-31T18:52:25.957Z,99795.56
2022-10-31T18:55:11.377Z,99785.03
2022-10-31T18:57:56.749Z,99778.84
2022-10-31T19:00:42.476Z,99782.25
2022-10-31T19:03:28.158Z,99780.47
2022-10-31T19:06:13.601Z,99775.94
2022-10-31T19:09:01.452Z,99781.06
2022-10-31T19:11:46.812Z,99772.34
2022-10-31T19:14:32.176Z,99776.69
2022-10-31T19:17:17.492Z,99769.66
2022-10-31T19:20:02.771Z,99767.78
2022-10-31T19:22:48.210Z,99763.38
2022-10-31T19:25:33.457Z,99766.88
2022-10-31T19:28:19.032Z,99758.22
2022-10-31T19:31:05.389Z,99754.72
2022-10-31T19:33:50.979Z,99748.72
2022-10-31T19:36:36.671Z,99736.63
2022-10-31T19:39:22.183Z,99744.59
2022-10-31T19:42:07.586Z,99737.63
2022-10-31T19:44:52.816Z,99730.63
2022-10-31T19:47:38.230Z,99742.88
2022-10-31T19:50:23.617Z,99735.03
2022-10-31T19:53:09.622Z,99733.19
2022-10-31T19:55:55.342Z,99726.22
2022-10-31T19:58:41.580Z,99727.91
2022-10-31T20:01:26.969Z,99725.22
2022-10-31T20:04:12.910Z,99724.28
2022-10-31T20:06:58.217Z,99730.25
2022-10-31T20:09:46.418Z,99723.38
2022-10-31T20:12:33.393Z,99711.41
2022-10-31T20:15:19.037Z,99719.44
2022-10-31T20:18:04.787Z,99694.56
2022-10-31T20:20:50.179Z,99692.97
2022-10-31T20:23:36.393Z,99683.63
2022-10-31T20:26:22.013Z,99676.91
2022-10-31T20:29:12.310Z,99677.22
2022-10-31T20:31:57.939Z,99667.84
2022-10-31T20:34:43.577Z,99663.78
2022-10-31T20:37:29.342Z,99656.13
2022-10-31T20:40:14.783Z,99651.81
2022-10-31T20:43:01.814Z,99646.59
2022-10-31T20:45:47.504Z,99654.56
2022-10-31T20:48:34.074Z,99642.56
2022-10-31T20:51:31.795Z,99640.03
2022-10-31T20:54:20.114Z,99638.38
2022-10-31T20:57:05.715Z,99640.19
2022-10-31T20:59:51.281Z,99633.28
2022-10-31T21:02:39.359Z,99626.38
2022-10-31T21:05:25.005Z,99629.06
2022-10-31T21:08:10.331Z,99626.44
2022-10-31T21:10:56.332Z,99624.66
2022-10-31T21:13:43.505Z,99634.19
2022-10-31T21:16:32.528Z,99624.69
2022-10-31T21:19:17.922Z,99626.41
2022-10-31T21:22:03.830Z,99628.13
2022-10-31T21:24:49.054Z,99636.03
2022-10-31T21:27:34.474Z,99623.03
2022-10-31T21:30:19.807Z,99621.44
2022-10-31T21:33:05.281Z,99622.38
2022-10-31T21:35:52.152Z,99632.78
2022-10-31T21:38:38.261Z,99638.78
2022-10-31T21:41:25.244Z,99637.03
2022-10-31T21:44:10.870Z,99633.63
2022-10-31T21:46:56.433Z,99638.81
2022-10-31T21:49:41.866Z,99626.72
2022-10-31T21:52:27.305Z,99621.59
2022-10-31T21:55:12.960Z,99624.22
2022-10-31T21:57:58.426Z,99637.22
2022-10-31T22:00:44.264Z,99635.47
2022-10-31T22:03:29.866Z,99636.31
2022-10-31T22:06:16.122Z,99631.16
2022-10-31T22:09:03.364Z,99622.47
2022-10-31T22:11:48.808Z,99613.84
2022-10-31T22:14:34.242Z,99612.13
2022-10-31T22:17:19.723Z,99608.66
2022-10-31T22:20:05.546Z,99610.38
2022-10-31T22:22:51.153Z,99616.47
2022-10-31T22:25:39.394Z,99600.88
2022-10-31T22:28:30.023Z,99594.81
2022-10-31T22:31:18.351Z,99595.75
2022-10-31T22:34:03.963Z,99590.53
2022-10-31T22:36:49.393Z,99588.78
2022-10-31T22:39:34.708Z,99582.72
2022-10-31T22:42:20.125Z,99575.84
2022-10-31T22:45:05.904Z,99573.28
2022-10-31T22:47:51.371Z,99570.69
2022-10-31T22:50:36.683Z,99575.06
2022-10-31T22:53:22.024Z,99577.69
2022-10-31T22:56:09.380Z,99576.84
2022-10-31T22:58:55.397Z,99560.31
2022-10-31T23:01:41.391Z,99563.88
2022-10-31T23:04:27.243Z,99556.09
2022-10-31T23:07:14.553Z,99560.47
2022-10-31T23:10:00.920Z,99550.09
2022-10-31T23:13:04.833Z,99553.59
2022-10-31T23:15:50.394Z,99542.31
2022-10-31T23:18:49.609Z,99544.06
2022-10-31T23:21:54.557Z,99538.84
2022-10-31T23:24:43.055Z,99538.84
2022-10-31T23:27:28.477Z,99533.63
2022-10-31T23:30:14.460Z,99528.44
2022-10-31T23:33:00.125Z,99527.59
2022-10-31T23:35:45.961Z,99521.56
2022-10-31T23:38:31.561Z,99508.53
2022-10-31T23:41:16.928Z,99509.41
2022-10-31T23:44:02.360Z,99504.22
2022-10-31T23:46:47.631Z,99502.47
2022-10-31T23:49:33.218Z,99499.03
2022-10-31T23:52:19.047Z,99503.38
2022-10-31T23:55:04.960Z,99505.09
2022-10-31T23:57:50.559Z,99508.56
